Time;durP1;ratioP1;P1;durP2;ratioP2;P2;SDS_P1;SDS_P2;PMS_P1;PMS_P2;Temp;Humidity;BMP_temperature;BMP_pressure;BME280_temperature;BME280_humidity;BME280_pressure;Samples;Min_cycle;Max_cycle;Signal;HPM_P1;HPM_P2
2021/07/17 00:00:20;;;;;;;0.40;0.40;;;;;;;16.22;90.43;97440.91;29395;209;63005;-62
2021/07/17 00:00:52;;;;;;;0.40;0.40;;;;;;;16.20;91.00;97443.97;29394;293;64013;-63
2021/07/17 00:01:23;;;;;;;0.40;0.40;;;;;;;16.19;91.38;97434.16;29395;206;63004;-61
2021/07/17 00:01:54;;;;;;;0.40;0.40;;;;;;;16.18;91.41;97445.41;29395;309;63009;-63
2021/07/17 00:02:25;;;;;;;0.50;0.50;;;;;;;16.17;91.06;97443.78;29395;321;63004;-61
2021/07/17 00:02:57;;;;;;;0.40;0.40;;;;;;;16.19;90.85;97442.34;29395;313;63009;-62
2021/07/17 00:03:28;;;;;;;0.40;0.40;;;;;;;16.28;90.64;97447.87;29394;227;64008;-61
2021/07/17 00:04:03;;;;;;;0.40;0.40;;;;;;;16.32;89.80;97440.63;29395;234;63017;-62
2021/07/17 00:04:34;;;;;;;0.50;0.50;;;;;;;16.31;89.64;97444.47;29395;243;63005;-62
2021/07/17 00:05:14;;;;;;;0.40;0.40;;;;;;;16.28;89.93;97437.72;29395;206;63009;-57
2021/07/17 00:05:46;;;;;;;0.40;0.40;;;;;;;16.26;89.77;97441.91;29395;286;63005;-55
2021/07/17 00:06:18;;;;;;;0.40;0.40;;;;;;;16.24;90.11;97444.16;29394;202;64013;-62
2021/07/17 00:06:49;;;;;;;0.40;0.40;;;;;;;16.22;90.12;97446.41;29395;218;63005;-63
2021/07/17 00:07:22;;;;;;;0.40;0.40;;;;;;;16.21;90.06;97444.78;29395;235;63009;-59
2021/07/17 00:07:54;;;;;;;0.40;0.40;;;;;;;16.21;90.26;97444.78;29395;223;63004;-62
2021/07/17 00:08:29;;;;;;;0.40;0.40;;;;;;;16.20;90.24;97440.44;29395;224;63009;-62
2021/07/17 00:09:00;;;;;;;0.40;0.40;;;;;;;16.18;90.99;97443.47;29395;219;63004;-62
2021/07/17 00:09:32;;;;;;;0.40;0.40;;;;;;;16.17;90.84;97441.06;29395;199;63009;-65
2021/07/17 00:10:25;;;;;;;0.40;0.40;;;;;;;16.16;91.35;97442.97;29394;213;64008;-62
2021/07/17 00:10:57;;;;;;;0.47;0.47;;;;;;;16.16;90.98;97439.44;29395;196;63009;-61
2021/07/17 00:11:28;;;;;;;0.40;0.40;;;;;;;16.15;91.36;97441.38;29395;251;63005;-62
2021/07/17 00:11:59;;;;;;;0.40;0.40;;;;;;;16.13;91.27;97440.87;29395;213;63009;-54
2021/07/17 00:12:30;;;;;;;0.40;0.40;;;;;;;16.13;91.11;97432.66;29394;221;64009;-52
2021/07/17 00:13:02;;;;;;;0.40;0.40;;;;;;;16.12;91.08;97433.78;29395;310;63009;-62
2021/07/17 00:13:33;;;;;;;0.50;0.50;;;;;;;16.12;91.36;97441.19;29395;199;63005;-62
2021/07/17 00:14:05;;;;;;;0.43;0.43;;;;;;;16.12;91.44;97435.72;29395;284;63009;-61
2021/07/17 00:14:37;;;;;;;0.40;0.40;;;;;;;16.12;91.01;97435.72;29395;221;63005;-63
2021/07/17 00:15:10;;;;;;;0.47;0.47;;;;;;;16.13;90.89;97435.41;29395;205;63009;-57
2021/07/17 00:15:43;;;;;;;0.40;0.40;;;;;;;16.12;91.09;97435.72;29395;218;63004;-57
2021/07/17 00:16:26;;;;;;;0.40;0.40;;;;;;;16.10;91.05;97438.75;29395;202;63016;-62
2021/07/17 00:16:57;;;;;;;0.40;0.40;;;;;;;16.09;90.97;97448.91;29394;214;64009;-61
2021/07/17 00:17:30;;;;;;;0.40;0.40;;;;;;;16.09;90.96;97445.38;29395;275;63008;-62
2021/07/17 00:18:01;;;;;;;0.40;0.40;;;;;;;16.08;91.08;97441.81;29395;282;63009;-56
2021/07/17 00:18:35;;;;;;;0.40;0.40;;;;;;;16.06;91.08;97441.31;29395;261;63009;-65
2021/07/17 00:19:07;;;;;;;0.40;0.40;;;;;;;16.08;90.99;97447.28;29395;229;63005;-60
2021/07/17 00:19:38;;;;;;;0.50;0.50;;;;;;;16.05;90.87;97436.16;29395;236;63009;-61
2021/07/17 00:20:11;;;;;;;0.43;0.43;;;;;;;16.15;90.64;97441.38;29394;197;64009;-61
2021/07/17 00:20:48;;;;;;;0.40;0.40;;;;;;;16.24;90.03;97441.41;29395;198;63009;-52
2021/07/17 00:21:19;;;;;;;0.40;0.40;;;;;;;16.29;89.54;97435.78;29395;248;63005;-62
2021/07/17 00:21:50;;;;;;;0.50;0.50;;;;;;;16.27;89.67;97438.03;29395;259;63009;-62
2021/07/17 00:22:22;;;;;;;0.40;0.40;;;;;;;16.24;89.63;97433.19;29395;196;63005;-63
2021/07/17 00:22:53;;;;;;;0.40;0.40;;;;;;;16.20;89.55;97440.44;29395;204;63009;-62
2021/07/17 00:23:25;;;;;;;0.40;0.40;;;;;;;16.18;89.61;97438.00;29394;208;64009;-62
2021/07/17 00:23:56;;;;;;;0.40;0.40;;;;;;;16.14;90.33;97436.22;29395;365;63009;-61
2021/07/17 00:24:28;;;;;;;0.43;0.43;;;;;;;16.11;90.52;97436.84;29395;220;63004;-63
2021/07/17 00:24:59;;;;;;;0.40;0.40;;;;;;;16.07;90.78;97437.47;29395;228;63014;-61
2021/07/17 00:25:30;;;;;;;0.40;0.40;;;;;;;16.04;90.72;97435.34;29395;215;63004;-59
2021/07/17 00:26:02;;;;;;;0.50;0.50;;;;;;;16.07;90.91;97434.72;29395;235;63009;-60
2021/07/17 00:26:33;;;;;;;0.45;0.45;;;;;;;16.09;90.65;97434.41;29395;203;63005;-62
2021/07/17 00:27:04;;;;;;;0.40;0.40;;;;;;;16.08;90.41;97436.34;29394;209;64005;-62
2021/07/17 00:27:35;;;;;;;0.40;0.40;;;;;;;16.09;90.56;97432.47;29395;235;63005;-59
2021/07/17 00:28:07;;;;;;;0.40;0.40;;;;;;;16.13;90.46;97434.59;29395;239;63009;-60
2021/07/17 00:28:38;;;;;;;0.47;0.47;;;;;;;16.17;90.22;97432.84;29395;226;63005;-61
2021/07/17 00:29:09;;;;;;;0.40;0.40;;;;;;;16.16;90.18;97429.28;29394;250;64013;-62
2021/07/17 00:29:43;;;;;;;0.40;0.40;;;;;;;16.15;89.97;97424.13;29395;218;63005;-59
2021/07/17 00:30:16;;;;;;;0.40;0.40;;;;;;;16.12;89.92;97424.75;29395;262;63009;-61
2021/07/17 00:30:48;;;;;;;0.40;0.40;;;;;;;16.11;90.19;97423.16;29395;214;63004;-61
2021/07/17 00:31:19;;;;;;;0.40;0.40;;;;;;;16.11;89.88;97421.22;29395;220;63009;-62
2021/07/17 00:31:51;;;;;;;0.40;0.40;;;;;;;16.10;90.12;97422.34;29394;221;64009;-61
2021/07/17 00:32:22;;;;;;;0.40;0.40;;;;;;;16.08;90.30;97419.91;29395;212;63009;-60
2021/07/17 00:32:53;;;;;;;0.40;0.40;;;;;;;16.09;90.58;97421.53;29395;210;63004;-61
2021/07/17 00:33:24;;;;;;;0.40;0.40;;;;;;;16.07;90.60;97423.78;29394;221;64014;-55
2021/07/17 00:33:57;;;;;;;0.40;0.40;;;;;;;16.05;90.66;97420.53;29395;253;63010;-62
2021/07/17 00:34:31;;;;;;;0.50;0.50;;;;;;;16.04;90.48;97418.94;29395;214;63009;-60
2021/07/17 00:35:05;;;;;;;0.40;0.40;;;;;;;16.03;90.64;97417.31;29394;259;64005;-60
2021/07/17 00:35:36;;;;;;;0.50;0.50;;;;;;;16.06;90.34;97427.63;29394;382;64013;-60
2021/07/17 00:36:08;;;;;;;0.40;0.40;;;;;;;16.05;90.28;97426.03;29394;234;64009;-59
2021/07/17 00:36:39;;;;;;;0.40;0.40;;;;;;;16.06;90.21;97430.38;29395;229;63017;-61
2021/07/17 00:37:10;;;;;;;0.50;0.50;;;;;;;16.05;90.43;97426.03;29395;219;63005;-54
2021/07/17 00:37:42;;;;;;;0.50;0.50;;;;;;;16.04;90.36;97429.06;29394;220;64009;-62
2021/07/17 00:38:13;;;;;;;0.40;0.40;;;;;;;16.02;90.50;97431.31;29395;209;63004;-61
2021/07/17 00:38:44;;;;;;;0.50;0.50;;;;;;;16.00;90.72;97426.16;29394;218;64013;-62
2021/07/17 00:39:15;;;;;;;0.40;0.40;;;;;;;15.99;90.42;97426.47;29395;203;63004;-61
2021/07/17 00:39:48;;;;;;;0.45;0.45;;;;;;;15.99;90.78;97431.94;29395;218;63009;-63
2021/07/17 00:40:20;;;;;;;0.43;0.43;;;;;;;15.99;90.51;97426.47;29395;236;63004;-56
2021/07/17 00:40:51;;;;;;;0.43;0.43;;;;;;;15.97;90.78;97429.50;29395;241;63014;-61
2021/07/17 00:41:23;;;;;;;0.40;0.40;;;;;;;15.96;91.11;97430.63;29395;248;63005;-62
2021/07/17 00:41:54;;;;;;;0.50;0.50;;;;;;;15.94;91.01;97435.62;29395;232;63009;-62
2021/07/17 00:42:25;;;;;;;0.40;0.40;;;;;;;15.93;91.47;97423.09;29395;204;63005;-56
2021/07/17 00:42:56;;;;;;;0.45;0.45;;;;;;;15.91;91.52;97425.31;29394;197;64013;-56
2021/07/17 00:43:27;;;;;;;0.65;0.65;;;;;;;15.88;91.85;97420.47;29395;263;63005;-62
2021/07/17 00:43:58;;;;;;;1.65;0.90;;;;;;;15.87;91.71;97429.81;29395;240;63009;-56
2021/07/17 00:44:31;;;;;;;0.40;0.40;;;;;;;15.86;92.10;97427.38;29395;224;63005;-56
2021/07/17 00:45:03;;;;;;;0.40;0.40;;;;;;;15.85;92.28;97426.56;29395;245;63009;-62
2021/07/17 00:45:34;;;;;;;0.50;0.50;;;;;;;15.83;92.43;97428.81;29395;369;63004;-61
2021/07/17 00:46:05;;;;;;;0.50;0.50;;;;;;;15.82;92.15;97420.91;29395;197;63009;-59
2021/07/17 00:46:37;;;;;;;0.50;0.50;;;;;;;15.88;92.10;97436.09;29395;208;63004;-61
2021/07/17 00:47:10;;;;;;;0.50;0.50;;;;;;;15.88;91.74;97428.69;29395;236;63009;-61
2021/07/17 00:47:42;;;;;;;0.40;0.40;;;;;;;15.87;91.86;97429.81;29395;215;63004;-60
2021/07/17 00:48:13;;;;;;;0.40;0.40;;;;;;;15.90;91.72;97420.97;29394;203;64013;-60
2021/07/17 00:48:45;;;;;;;0.50;0.50;;;;;;;15.92;91.57;97421.47;29395;198;63005;-62
2021/07/17 00:49:21;;;;;;;0.50;0.50;;;;;;;15.93;91.20;97428.56;29395;202;63017;-60
2021/07/17 00:49:52;;;;;;;0.47;0.47;;;;;;;15.95;91.37;97429.03;29395;207;63005;-55
2021/07/17 00:50:24;;;;;;;0.40;0.40;;;;;;;15.94;91.28;97419.19;29395;200;63009;-61
2021/07/17 00:50:55;;;;;;;0.40;0.40;;;;;;;15.93;91.18;97425.81;29394;321;64009;-61
2021/07/17 00:51:26;;;;;;;0.50;0.50;;;;;;;15.93;91.19;97425.81;29395;344;63009;-56
2021/07/17 00:51:58;;;;;;;0.40;0.40;;;;;;;15.93;91.35;97423.09;29395;220;63004;-63
2021/07/17 00:52:29;;;;;;;0.40;0.40;;;;;;;15.93;90.96;97428.56;29395;270;63009;-62
2021/07/17 00:53:02;;;;;;;0.40;0.40;;;;;;;15.94;90.93;97421.94;29394;234;64009;-56
2021/07/17 00:53:34;;;;;;;0.50;0.50;;;;;;;15.94;90.91;97423.88;29395;202;63009;-57
2021/07/17 00:54:06;;;;;;;0.40;0.40;;;;;;;15.92;91.21;97421.47;29395;209;63004;-61
2021/07/17 00:54:40;;;;;;;0.40;0.40;;;;;;;15.91;90.89;97419.84;29395;199;63008;-61
2021/07/17 00:55:15;;;;;;;0.40;0.40;;;;;;;15.90;91.06;97418.22;29395;236;63004;-60
2021/07/17 00:55:49;;;;;;;0.40;0.40;;;;;;;15.88;91.35;97419.66;29395;238;63008;-61
2021/07/17 00:56:21;;;;;;;0.40;0.40;;;;;;;15.91;90.98;97419.84;29394;291;64009;-60
2021/07/17 00:56:53;;;;;;;0.40;0.40;;;;;;;15.93;91.08;97416.81;29395;199;63009;-60
2021/07/17 00:57:26;;;;;;;0.40;0.40;;;;;;;15.97;90.97;97418.56;29395;244;63005;-60
2021/07/17 00:57:59;;;;;;;0.43;0.43;;;;;;;16.10;90.08;97411.41;29395;253;63009;-61
2021/07/17 00:58:36;;;;;;;0.40;0.40;;;;;;;16.08;90.11;97417.19;29395;206;63005;-62
2021/07/17 00:59:08;;;;;;;0.40;0.40;;;;;;;16.05;89.78;97415.06;29395;203;63009;-60
2021/07/17 00:59:42;;;;;;;0.40;0.40;;;;;;;16.03;89.98;97414.56;29394;220;64004;-61
2021/07/17 01:00:17;;;;;;;0.40;0.40;;;;;;;16.01;90.16;97419.56;29395;236;63009;-56
2021/07/17 01:00:52;;;;;;;0.40;0.40;;;;;;;16.01;90.25;97419.56;29395;225;63004;-61
2021/07/17 01:01:23;;;;;;;0.40;0.40;;;;;;;16.01;90.34;97419.56;29394;216;64013;-60
2021/07/17 01:01:58;;;;;;;0.40;0.40;;;;;;;16.04;90.34;97418.94;29395;265;63013;-53
2021/07/17 01:02:35;;;;;;;0.75;0.75;;;;;;;16.08;90.03;97417.19;29395;307;63008;-55
2021/07/17 01:03:08;;;;;;;0.40;0.40;;;;;;;16.12;89.59;97419.28;29395;202;63013;-53
2021/07/17 01:03:41;;;;;;;0.40;0.40;;;;;;;16.14;89.70;97417.03;29395;240;63005;-60
2021/07/17 01:04:13;;;;;;;0.40;0.40;;;;;;;16.12;89.39;97409.16;29395;235;63005;-61
2021/07/17 01:04:46;;;;;;;0.40;0.40;;;;;;;16.10;89.73;97411.41;29395;293;63009;-60
2021/07/17 01:05:18;;;;;;;0.40;0.40;;;;;;;16.07;89.53;97412.81;29394;203;63998;-62
2021/07/17 01:05:50;;;;;;;0.75;0.75;;;;;;;16.07;89.62;97422.97;29395;205;63009;-61
2021/07/17 01:06:22;;;;;;;0.40;0.40;;;;;;;16.05;89.67;97415.06;29395;205;63005;-62
2021/07/17 01:06:53;;;;;;;0.40;0.40;;;;;;;16.04;90.29;97416.19;29395;217;63009;-62
2021/07/17 01:07:25;;;;;;;0.40;0.40;;;;;;;16.03;90.48;97420.06;29395;235;63004;-61
2021/07/17 01:07:57;;;;;;;0.40;0.40;;;;;;;16.00;90.26;97415.19;29395;212;63009;-61
2021/07/17 01:08:28;;;;;;;0.40;0.40;;;;;;;15.99;90.65;97419.06;29395;197;63004;-63
2021/07/17 01:09:00;;;;;;;0.40;0.40;;;;;;;15.97;90.80;97418.56;29395;253;63017;-61
2021/07/17 01:09:31;;;;;;;0.40;0.40;;;;;;;15.96;91.39;97416.94;29394;239;64008;-62
2021/07/17 01:10:05;;;;;;;0.40;0.40;;;;;;;15.95;91.40;97420.81;29395;212;63008;-56
2021/07/17 01:10:38;;;;;;;0.40;0.40;;;;;;;15.93;91.52;97416.81;29395;210;63005;-59
2021/07/17 01:11:09;;;;;;;0.50;0.50;;;;;;;15.95;91.33;97420.81;29395;222;63018;-60
2021/07/17 01:11:41;;;;;;;0.50;0.50;;;;;;;15.99;91.00;97413.59;29395;243;63005;-59
2021/07/17 01:12:12;;;;;;;0.40;0.40;;;;;;;16.02;90.83;97418.44;29395;243;63009;-61
2021/07/17 01:12:45;;;;;;;0.40;0.40;;;;;;;16.02;90.59;97415.69;29395;292;63005;-60
2021/07/17 01:13:16;;;;;;;0.40;0.40;;;;;;;16.02;90.51;97415.69;29395;214;63009;-61
2021/07/17 01:13:48;;;;;;;0.40;0.40;;;;;;;16.03;90.48;97411.84;29394;278;64009;-53
2021/07/17 01:14:19;;;;;;;0.50;0.50;;;;;;;16.05;90.52;97409.59;29395;204;63009;-61
2021/07/17 01:14:51;;;;;;;0.40;0.40;;;;;;;16.04;90.53;97412.66;29395;286;63004;-62
2021/07/17 01:15:22;;;;;;;0.40;0.40;;;;;;;16.01;90.22;97418.75;29395;206;63009;-62
2021/07/17 01:15:53;;;;;;;0.40;0.40;;;;;;;16.02;90.55;97417.63;29394;227;64013;-61
2021/07/17 01:16:25;;;;;;;0.40;0.40;;;;;;;16.01;90.49;97414.09;29395;331;63004;-62
2021/07/17 01:16:56;;;;;;;0.40;0.40;;;;;;;15.99;90.42;97413.59;29395;196;63009;-63
2021/07/17 01:17:29;;;;;;;0.50;0.50;;;;;;;15.98;90.47;97420.19;29395;228;63004;-56
2021/07/17 01:18:00;;;;;;;0.50;0.50;;;;;;;15.98;90.90;97422.91;29395;230;63009;-61
2021/07/17 01:18:32;;;;;;;0.50;0.50;;;;;;;15.97;90.86;97423.22;29395;240;63005;-63
2021/07/17 01:19:06;;;;;;;0.50;0.50;;;;;;;15.97;91.22;97410.34;29395;219;63009;-62
2021/07/17 01:19:37;;;;;;;0.50;0.50;;;;;;;15.96;91.03;97416.16;29395;295;63005;-63
2021/07/17 01:20:13;;;;;;;0.50;0.50;;;;;;;15.96;91.48;97410.66;29395;214;63009;-63
2021/07/17 01:20:47;;;;;;;0.50;0.50;;;;;;;15.97;91.08;97413.09;29395;221;63005;-59
2021/07/17 01:21:20;;;;;;;0.40;0.40;;;;;;;15.96;91.28;97422.44;29394;241;64013;-60
2021/07/17 01:21:53;;;;;;;0.50;0.50;;;;;;;15.94;91.14;97424.66;29395;217;63005;-60
2021/07/17 01:22:24;;;;;;;0.40;0.40;;;;;;;15.97;91.21;97424.03;29395;203;63009;-60
2021/07/17 01:22:55;;;;;;;0.40;0.40;;;;;;;15.97;90.99;97424.03;29395;217;63004;-71
2021/07/17 01:23:30;;;;;;;0.40;0.40;;;;;;;16.08;90.12;97424.59;29395;310;63009;-58
2021/07/17 01:24:02;;;;;;;0.40;0.40;;;;;;;16.14;89.56;97422.53;29395;222;63004;-61
2021/07/17 01:24:34;;;;;;;0.40;0.40;;;;;;;16.12;89.77;97413.81;29395;220;63009;-60
2021/07/17 01:25:26;;;;;;;0.40;0.40;;;;;;;16.09;89.75;97418.78;29395;290;63004;-61
2021/07/17 01:25:57;;;;;;;6.45;6.22;;;;;;;16.06;89.66;97424.91;29421;214;64014;-62
2021/07/17 01:26:30;;;;;;;0.40;0.40;;;;;;;16.03;90.04;97417.31;29395;222;63005;-62
2021/07/17 01:27:02;;;;;;;0.40;0.40;;;;;;;16.00;90.08;97420.69;29395;197;63009;-62
2021/07/17 01:27:34;;;;;;;0.40;0.40;;;;;;;16.02;90.30;97417.63;29395;212;63005;-62
2021/07/17 01:28:05;;;;;;;0.40;0.40;;;;;;;16.00;90.18;97417.13;29395;230;63009;-61
2021/07/17 01:28:40;;;;;;;0.40;0.40;;;;;;;16.00;90.42;97420.69;29395;231;63005;-61
2021/07/17 01:29:13;;;;;;;0.40;0.40;;;;;;;16.01;89.97;97418.75;29395;206;63009;-61
2021/07/17 01:29:46;;;;;;;0.40;0.40;;;;;;;16.02;89.83;97426.66;29394;231;64009;-62
2021/07/17 01:30:21;;;;;;;0.40;0.40;;;;;;;16.02;89.86;97423.09;29395;228;63009;-61
2021/07/17 01:30:52;;;;;;;0.40;0.40;;;;;;;16.00;89.88;97417.13;29395;212;63015;-62
2021/07/17 01:31:24;;;;;;;0.40;0.40;;;;;;;16.02;89.88;97421.19;29395;232;63009;-74
2021/07/17 01:31:55;;;;;;;0.40;0.40;;;;;;;16.01;89.96;97416.81;29395;202;63010;-61
2021/07/17 01:32:26;;;;;;;0.40;0.40;;;;;;;16.00;89.90;97417.94;29395;196;63008;-61
2021/07/17 01:32:58;;;;;;;0.40;0.40;;;;;;;16.06;89.36;97416.69;29395;211;63004;-55
2021/07/17 01:33:29;;;;;;;0.40;0.40;;;;;;;16.05;89.67;97415.06;29395;228;63009;-60
2021/07/17 01:34:00;;;;;;;0.40;0.40;;;;;;;16.04;89.33;97418.94;29395;202;63005;-62
2021/07/17 01:34:33;;;;;;;0.40;0.40;;;;;;;16.02;89.42;97415.69;29394;198;64014;-56
2021/07/17 01:35:06;;;;;;;0.45;0.45;;;;;;;15.99;89.71;97419.06;29395;210;63005;-60
2021/07/17 01:35:37;;;;;;;0.40;0.40;;;;;;;15.99;89.66;97415.53;29395;208;63009;-53
2021/07/17 01:36:08;;;;;;;0.40;0.40;;;;;;;16.06;89.59;97419.44;29395;259;63005;-61
2021/07/17 01:36:40;;;;;;;0.40;0.40;;;;;;;16.05;89.44;97415.06;29395;203;63009;-61
2021/07/17 01:37:11;;;;;;;0.40;0.40;;;;;;;16.10;88.99;97416.87;29395;243;63004;-61
2021/07/17 01:37:42;;;;;;;0.40;0.40;;;;;;;16.09;88.85;97420.72;29395;211;63009;-61
2021/07/17 01:38:14;;;;;;;0.50;0.50;;;;;;;16.12;89.11;97419.28;29395;221;63004;-69
2021/07/17 01:38:45;;;;;;;0.70;0.70;;;;;;;16.18;88.66;97423.50;29395;348;63023;-60
2021/07/17 01:39:17;;;;;;;0.40;0.40;;;;;;;16.19;88.33;97422.38;29395;251;63004;-54
2021/07/17 01:39:48;;;;;;;0.40;0.40;;;;;;;16.18;88.58;97426.25;29394;202;64013;-62
2021/07/17 01:40:20;;;;;;;0.40;0.40;;;;;;;16.13;88.47;97426.38;29395;275;63007;-62
2021/07/17 01:40:52;;;;;;;0.40;0.40;;;;;;;16.09;88.53;97429.75;29395;202;63009;-53
2021/07/17 01:41:23;;;;;;;0.40;0.40;;;;;;;16.18;88.61;97426.25;29395;202;63005;-55
2021/07/17 01:41:54;;;;;;;0.40;0.40;;;;;;;16.21;88.29;97422.88;29395;240;63012;-73
2021/07/17 01:42:26;;;;;;;0.60;0.60;;;;;;;16.24;88.07;97425.00;29395;216;63011;-61
2021/07/17 01:42:58;;;;;;;0.40;0.40;;;;;;;16.19;88.03;97419.66;29395;298;63009;-57
2021/07/17 01:43:29;;;;;;;0.40;0.40;;;;;;;16.15;88.34;97429.62;29395;287;63005;-61
2021/07/17 01:44:01;;;;;;;1.73;1.73;;;;;;;16.12;88.31;97427.50;29395;206;63009;-62
2021/07/17 01:44:43;;;;;;;0.40;0.40;;;;;;;16.06;89.03;97430.38;29395;212;63005;-55
2021/07/17 01:45:41;;;;;;;0.40;0.40;;;;;;;16.00;89.36;97426.16;29394;212;64013;-63
2021/07/17 01:46:16;;;;;;;0.50;0.50;;;;;;;15.94;89.52;97427.41;29395;257;63004;-62
2021/07/17 01:47:07;;;;;;;0.43;0.43;;;;;;;15.93;89.58;97427.75;29395;204;63027;-54
2021/07/17 01:47:41;;;;;;;0.40;0.40;;;;;;;15.97;89.64;97426.78;29417;217;63010;-61
2021/07/17 01:48:14;;;;;;;0.40;0.40;;;;;;;15.97;89.32;97421.31;29395;203;63009;-56
2021/07/17 01:48:52;;;;;;;0.50;0.50;;;;;;;15.98;89.47;97425.66;29395;328;63010;-60
2021/07/17 01:49:23;;;;;;;0.40;0.40;;;;;;;15.98;89.49;97424.84;29395;220;63009;-59
2021/07/17 01:49:54;;;;;;;0.40;0.40;;;;;;;15.95;89.31;97426.28;29395;199;63005;-61
2021/07/17 01:50:30;;;;;;;0.40;0.40;;;;;;;15.96;89.28;97427.91;29394;248;64013;-61
2021/07/17 01:51:02;;;;;;;0.40;0.40;;;;;;;15.97;89.42;97429.50;29395;230;63005;-60
2021/07/17 01:51:33;;;;;;;0.50;0.50;;;;;;;16.00;89.29;97426.16;29395;212;63009;-62
2021/07/17 01:52:06;;;;;;;0.40;0.40;;;;;;;15.97;89.09;97429.50;29395;199;63005;-62
2021/07/17 01:52:37;;;;;;;0.93;0.93;;;;;;;15.95;89.47;97422.75;29395;239;63009;-60
2021/07/17 01:53:12;;;;;;;0.40;0.40;;;;;;;15.93;89.55;97427.75;29395;215;63011;-63
2021/07/17 01:53:43;;;;;;;0.40;0.40;;;;;;;15.90;89.92;97439.31;29395;202;63009;-62
2021/07/17 01:54:14;;;;;;;0.50;0.50;;;;;;;15.85;90.00;97426.56;29395;285;63004;-55
2021/07/17 01:54:45;;;;;;;0.40;0.40;;;;;;;15.84;89.77;97424.97;29395;212;63009;-62
2021/07/17 01:55:17;;;;;;;0.50;0.50;;;;;;;15.83;90.17;97426.09;29394;213;64008;-61
2021/07/17 01:55:48;;;;;;;0.40;0.40;;;;;;;15.85;89.99;97425.75;29395;207;63009;-61
2021/07/17 01:56:19;;;;;;;0.40;0.40;;;;;;;15.83;89.90;97425.28;29395;234;63005;-59
2021/07/17 01:56:51;;;;;;;0.40;0.40;;;;;;;15.83;90.25;97422.53;29395;199;63009;-64
2021/07/17 01:57:22;;;;;;;0.40;0.40;;;;;;;15.82;90.16;97420.91;29395;197;63005;-55
2021/07/17 01:57:55;;;;;;;0.45;0.45;;;;;;;15.80;90.04;97423.16;29395;197;63009;-62
2021/07/17 01:58:29;;;;;;;0.40;0.40;;;;;;;15.78;90.42;97426.22;29395;197;63005;-62
2021/07/17 01:59:01;;;;;;;0.40;0.40;;;;;;;15.75;90.34;97422.16;29395;199;63009;-63
2021/07/17 01:59:45;;;;;;;0.40;0.40;;;;;;;15.73;90.58;97424.41;29395;260;63004;-60
2021/07/17 02:00:18;;;;;;;0.43;0.43;;;;;;;15.75;90.42;97427.63;29394;237;64013;-59
2021/07/17 02:00:53;;;;;;;0.40;0.40;;;;;;;15.78;90.29;97430.88;29395;197;63004;-57
2021/07/17 02:01:26;;;;;;;0.40;0.40;;;;;;;15.78;90.48;97426.22;29395;206;63009;-64
2021/07/17 02:01:57;;;;;;;0.40;0.40;;;;;;;15.77;90.32;97426.53;29395;228;63004;-61
2021/07/17 02:02:28;;;;;;;0.40;0.40;;;;;;;15.81;90.19;97431.06;29395;212;63008;-60
2021/07/17 02:02:59;;;;;;;0.40;0.40;;;;;;;15.82;89.97;97431.87;29395;236;63004;-61
2021/07/17 02:03:31;;;;;;;0.40;0.40;;;;;;;15.82;90.12;97427.19;29395;199;63013;-62
2021/07/17 02:04:03;;;;;;;0.40;0.40;;;;;;;15.78;89.94;97420.72;29395;259;63005;-63
2021/07/17 02:04:34;;;;;;;0.40;0.40;;;;;;;15.80;90.14;97428.62;29395;228;63009;-55
2021/07/17 02:05:07;;;;;;;0.40;0.40;;;;;;;15.78;90.31;97420.72;29395;235;63009;-62
2021/07/17 02:05:40;;;;;;;0.50;0.50;;;;;;;15.77;90.15;97421.03;29394;202;64013;-61
2021/07/17 02:06:13;;;;;;;0.40;0.40;;;;;;;15.75;90.24;97415.88;29395;256;63005;-63
2021/07/17 02:06:44;;;;;;;0.40;0.40;;;;;;;15.77;90.48;97421.84;29395;218;63009;-61
2021/07/17 02:07:15;;;;;;;0.40;0.40;;;;;;;15.77;90.10;97421.84;29395;324;63004;-62
2021/07/17 02:07:47;;;;;;;0.40;0.40;;;;;;;15.78;90.46;97422.66;29395;216;63009;-61
2021/07/17 02:08:20;;;;;;;0.47;0.47;;;;;;;15.77;90.33;97413.66;29395;295;63004;-63
2021/07/17 02:08:52;;;;;;;0.40;0.40;;;;;;;15.77;90.41;97415.56;29395;202;63009;-62
2021/07/17 02:09:23;;;;;;;0.47;0.47;;;;;;;15.77;90.16;97413.66;29395;213;63004;-62
2021/07/17 02:09:54;;;;;;;0.43;0.43;;;;;;;15.76;90.08;97417.50;29395;214;63009;-53
2021/07/17 02:10:33;;;;;;;0.40;0.40;;;;;;;15.85;90.06;97423.84;29395;216;63005;-65
2021/07/17 02:11:05;;;;;;;0.50;0.50;;;;;;;15.85;89.60;97415.63;29394;218;64014;-55
2021/07/17 02:11:38;;;;;;;0.50;0.50;;;;;;;15.87;89.55;97413.38;29395;200;63005;-62
2021/07/17 02:12:10;;;;;;;0.50;0.50;;;;;;;15.85;89.58;97410.16;29395;216;63009;-61
2021/07/17 02:12:59;;;;;;;0.40;0.40;;;;;;;15.86;89.50;97409.03;29395;356;63005;-62
2021/07/17 02:13:30;;;;;;;0.40;0.40;;;;;;;15.84;89.63;97408.53;29395;215;63009;-63
2021/07/17 02:14:01;;;;;;;0.40;0.40;;;;;;;15.83;89.45;97406.12;29395;203;63005;-60
2021/07/17 02:14:37;;;;;;;0.40;0.40;;;;;;;15.88;89.40;97404.06;29395;204;63009;-61
2021/07/17 02:15:09;;;;;;;0.40;0.40;;;;;;;15.90;89.44;97412.75;29395;256;63004;-61
2021/07/17 02:15:52;;;;;;;0.40;0.40;;;;;;;15.91;89.09;97406.16;29395;221;63009;-61
2021/07/17 02:16:23;;;;;;;0.40;0.40;;;;;;;15.87;89.01;97407.91;29394;223;64009;-61
2021/07/17 02:16:55;;;;;;;0.40;0.40;;;;;;;15.85;89.27;97404.69;29395;282;63008;-60
2021/07/17 02:17:28;;;;;;;0.47;0.47;;;;;;;15.84;89.46;97402.25;29395;203;63005;-62
2021/07/17 02:18:00;;;;;;;0.47;0.47;;;;;;;15.80;89.63;97401.28;29395;265;63009;-56
2021/07/17 02:18:34;;;;;;;0.40;0.40;;;;;;;15.78;89.72;97395.31;29394;224;64009;-62
2021/07/17 02:19:16;;;;;;;0.40;0.40;;;;;;;15.77;89.76;97390.94;29395;248;63009;-53
2021/07/17 02:19:51;;;;;;;0.43;0.43;;;;;;;15.75;89.74;97399.47;29395;280;63005;-62
2021/07/17 02:20:23;;;;;;;0.40;0.40;;;;;;;15.72;90.21;97400.91;29395;204;63009;-56
2021/07/17 02:20:54;;;;;;;0.40;0.40;;;;;;;15.73;89.98;97396.25;29395;221;63005;-53
2021/07/17 02:21:25;;;;;;;0.40;0.40;;;;;;;15.75;90.01;97396.72;29395;367;63009;-60
2021/07/17 02:22:00;;;;;;;0.50;0.50;;;;;;;15.84;89.46;97400.34;29395;198;63004;-61
2021/07/17 02:22:31;;;;;;;0.40;0.40;;;;;;;15.82;89.59;97396.28;29395;314;63009;-61
2021/07/17 02:23:04;;;;;;;0.40;0.40;;;;;;;15.79;89.33;97397.72;29395;202;63004;-62
2021/07/17 02:23:36;;;;;;;0.40;0.40;;;;;;;15.77;89.49;97391.75;29394;222;64012;-61
2021/07/17 02:24:07;;;;;;;0.50;0.50;;;;;;;15.77;89.63;97391.75;29395;202;63004;-61
2021/07/17 02:24:39;;;;;;;0.50;0.50;;;;;;;15.75;89.58;97402.22;29395;223;63008;-62
2021/07/17 02:25:10;;;;;;;0.40;0.40;;;;;;;15.75;89.81;97399.47;29395;230;63005;-63
2021/07/17 02:25:42;;;;;;;0.40;0.40;;;;;;;15.73;90.13;97398.97;29395;276;63009;-59
2021/07/17 02:26:13;;;;;;;0.40;0.40;;;;;;;15.73;90.20;97401.72;29395;249;63015;-61
2021/07/17 02:26:46;;;;;;;0.40;0.40;;;;;;;15.71;90.05;97395.75;29395;236;63017;-60
2021/07/17 02:27:17;;;;;;;0.43;0.43;;;;;;;15.70;90.00;97396.88;29395;221;63005;-60
2021/07/17 02:27:48;;;;;;;0.45;0.45;;;;;;;15.77;90.22;97402.69;29395;233;63009;-61
2021/07/17 02:28:22;;;;;;;0.40;0.40;;;;;;;15.80;89.71;97402.06;29395;235;63005;-54
2021/07/17 02:28:53;;;;;;;0.40;0.40;;;;;;;15.79;89.53;97397.72;29394;198;64013;-61
2021/07/17 02:29:25;;;;;;;0.40;0.40;;;;;;;15.78;89.84;97403.50;29395;239;63006;-54
2021/07/17 02:29:56;;;;;;;0.40;0.40;;;;;;;15.75;89.87;97399.47;29395;234;63009;-63
2021/07/17 02:30:28;;;;;;;0.40;0.40;;;;;;;15.73;90.28;97396.25;29394;262;64009;-62
2021/07/17 02:31:03;;;;;;;0.40;0.40;;;;;;;15.70;90.02;97402.34;29395;257;63009;-54
2021/07/17 02:31:36;;;;;;;0.40;0.40;;;;;;;15.67;90.62;97397.50;29395;358;63004;-55
2021/07/17 02:32:07;;;;;;;0.40;0.40;;;;;;;15.66;90.65;97395.88;29395;210;63024;-62
2021/07/17 02:32:39;;;;;;;0.40;0.40;;;;;;;15.65;90.45;97399.72;29395;198;63005;-60
2021/07/17 02:33:11;;;;;;;0.50;0.50;;;;;;;15.66;90.55;97398.59;29394;212;64014;-63
2021/07/17 02:33:42;;;;;;;0.47;0.47;;;;;;;15.65;90.74;97397.00;29395;214;63005;-61
2021/07/17 02:34:14;;;;;;;0.40;0.40;;;;;;;15.64;90.96;97400.84;29395;199;63009;-61
2021/07/17 02:34:45;;;;;;;0.40;0.40;;;;;;;15.64;90.84;97398.12;29395;214;63005;-63
2021/07/17 02:35:16;;;;;;;0.40;0.40;;;;;;;15.64;90.84;97398.12;29395;241;63009;-52
2021/07/17 02:35:48;;;;;;;0.40;0.40;;;;;;;15.67;90.51;97397.50;29395;218;63005;-55